createdAt,value
2018-11-28T00:00:09.759Z,20.92
2018-11-28T00:02:38.068Z,21.40
2018-11-28T00:05:09.416Z,20.05
2018-11-28T00:07:37.805Z,28.07
2018-11-28T00:10:09.155Z,28.65
2018-11-28T00:12:37.967Z,17.40
2018-11-28T00:15:07.260Z,19.60
2018-11-28T00:17:35.992Z,17.60
2018-11-28T00:20:04.512Z,18.60
2018-11-28T00:22:32.665Z,18.67
2018-11-28T00:25:00.815Z,21.55
2018-11-28T00:27:28.934Z,29.25
2018-11-28T00:29:57.080Z,27.05
2018-11-28T00:32:25.372Z,28.30
2018-11-28T00:34:53.532Z,23.38
2018-11-28T00:37:21.827Z,24.52
2018-11-28T00:39:50.014Z,22.95
2018-11-28T00:42:18.194Z,19.57
2018-11-28T00:44:46.431Z,21.55
2018-11-28T00:47:14.547Z,20.62
2018-11-28T00:49:42.721Z,21.80
2018-11-28T00:52:10.924Z,24.70
2018-11-28T00:54:39.106Z,20.77
2018-11-28T00:57:07.195Z,20.15
2018-11-28T00:59:35.342Z,20.80
2018-11-28T01:02:04.016Z,16.80
2018-11-28T01:04:32.112Z,23.98
2018-11-28T01:07:02.511Z,22.37
2018-11-28T01:09:30.764Z,23.25
2018-11-28T01:11:58.913Z,20.12
2018-11-28T01:14:27.095Z,19.30
2018-11-28T01:16:55.291Z,19.82
2018-11-28T01:19:23.443Z,22.07
2018-11-28T01:21:51.639Z,22.67
2018-11-28T01:24:19.887Z,21.15
2018-11-28T01:26:48.103Z,20.17
2018-11-28T01:29:16.304Z,23.67
2018-11-28T01:31:44.453Z,20.65
2018-11-28T01:34:12.610Z,23.12
2018-11-28T01:36:40.756Z,20.15
2018-11-28T01:39:08.923Z,21.45
2018-11-28T01:41:37.074Z,20.20
2018-11-28T01:44:05.777Z,19.00
2018-11-28T01:46:33.892Z,21.97
2018-11-28T01:49:02.023Z,21.33
2018-11-28T01:51:30.191Z,22.17
2018-11-28T01:53:58.315Z,21.40
2018-11-28T01:56:26.441Z,21.77
2018-11-28T01:58:54.629Z,23.50
2018-11-28T02:01:22.810Z,20.82
2018-11-28T02:03:51.008Z,21.55
2018-11-28T02:06:19.215Z,21.57
2018-11-28T02:08:47.345Z,22.87
2018-11-28T02:11:15.504Z,23.52
2018-11-28T02:13:43.624Z,21.60
2018-11-28T02:16:11.743Z,22.20
2018-11-28T02:18:39.975Z,21.20
2018-11-28T02:21:08.143Z,21.23
2018-11-28T02:23:36.247Z,21.12
2018-11-28T02:26:04.387Z,24.85
2018-11-28T02:28:32.489Z,24.98
2018-11-28T02:31:00.817Z,19.32
2018-11-28T02:33:28.959Z,19.25
2018-11-28T02:35:57.325Z,20.75
2018-11-28T02:38:25.502Z,20.68
2018-11-28T02:40:53.775Z,23.27
2018-11-28T02:43:21.967Z,20.40
2018-11-28T02:46:01.465Z,24.05
2018-11-28T02:48:29.577Z,25.37
2018-11-28T02:50:57.753Z,19.17
2018-11-28T02:53:25.903Z,30.02
2018-11-28T02:55:54.039Z,22.02
2018-11-28T02:58:28.927Z,25.00
2018-11-28T03:00:57.034Z,21.45
2018-11-28T03:03:25.176Z,25.17
2018-11-28T03:05:53.434Z,25.20
2018-11-28T03:08:21.693Z,26.68
2018-11-28T03:10:49.874Z,24.57
2018-11-28T03:13:18.009Z,27.90
2018-11-28T03:15:48.991Z,25.02
2018-11-28T03:18:17.787Z,22.90
2018-11-28T03:20:45.923Z,25.30
2018-11-28T03:23:14.091Z,24.72
2018-11-28T03:25:42.176Z,21.50
2018-11-28T03:28:10.355Z,22.55
2018-11-28T03:30:38.425Z,23.30
2018-11-28T03:33:06.557Z,22.32
2018-11-28T03:35:34.679Z,24.90
2018-11-28T03:38:02.981Z,20.12
2018-11-28T03:40:31.192Z,20.50
2018-11-28T03:42:59.388Z,22.67
2018-11-28T03:45:27.479Z,28.83
2018-11-28T03:47:55.710Z,22.95
2018-11-28T03:50:23.842Z,21.80
2018-11-28T03:52:52.019Z,23.50
2018-11-28T03:55:20.274Z,26.35
2018-11-28T03:57:48.648Z,22.32
2018-11-28T04:00:19.926Z,27.42
2018-11-28T04:02:48.452Z,21.87
2018-11-28T04:05:16.617Z,24.12
2018-11-28T04:07:44.735Z,25.15
2018-11-28T04:10:13.891Z,32.45
2018-11-28T04:12:42.751Z,44.23
2018-11-28T04:15:14.048Z,44.05
2018-11-28T04:17:42.246Z,51.35
2018-11-28T04:20:11.983Z,56.65
2018-11-28T04:22:40.100Z,59.58
2018-11-28T04:25:09.287Z,68.05
2018-11-28T04:27:37.484Z,63.05
2018-11-28T04:30:10.174Z,81.70
2018-11-28T04:32:38.363Z,99.37
2018-11-28T04:35:08.313Z,86.17
2018-11-28T04:37:36.466Z,102.80
2018-11-28T04:40:07.876Z,98.82
2018-11-28T04:42:36.129Z,97.02
2018-11-28T04:45:04.421Z,85.40
2018-11-28T04:47:32.571Z,95.12
2018-11-28T04:50:00.684Z,97.25
2018-11-28T04:52:29.368Z,94.47
2018-11-28T04:54:57.527Z,79.92
2018-11-28T04:57:25.680Z,80.28
2018-11-28T04:59:53.865Z,72.82
2018-11-28T05:02:22.057Z,82.35
2018-11-28T05:04:50.180Z,61.53
2018-11-28T05:07:26.623Z,58.92
2018-11-28T05:09:55.728Z,63.73
2018-11-28T05:12:23.840Z,56.80
2018-11-28T05:14:52.098Z,62.15
2018-11-28T05:17:20.345Z,54.13
2018-11-28T05:19:48.655Z,48.13
2018-11-28T05:22:16.821Z,45.38
2018-11-28T05:24:45.161Z,48.13
2018-11-28T05:27:13.292Z,40.58
2018-11-28T05:32:15.854Z,42.73
2018-11-28T05:34:44.040Z,45.55
2018-11-28T05:37:12.223Z,37.67
2018-11-28T05:39:40.355Z,36.13
2018-11-28T05:42:08.611Z,35.65
2018-11-28T05:44:36.893Z,33.35
2018-11-28T05:47:05.143Z,41.98
2018-11-28T05:49:33.444Z,39.03
2018-11-28T05:52:01.580Z,39.15
2018-11-28T05:54:29.704Z,41.30
2018-11-28T05:56:57.943Z,38.75
2018-11-28T05:59:27.478Z,41.35
2018-11-28T06:01:54.337Z,41.63
2018-11-28T06:04:22.584Z,40.58
2018-11-28T06:06:50.965Z,38.75
2018-11-28T06:09:19.145Z,40.83
2018-11-28T06:11:47.311Z,39.30
2018-11-28T06:14:15.574Z,40.40
2018-11-28T06:16:43.735Z,37.38
2018-11-28T06:19:11.969Z,48.05
2018-11-28T06:21:40.089Z,41.42
2018-11-28T06:24:08.326Z,39.45
2018-11-28T06:26:36.599Z,40.45
2018-11-28T06:29:04.745Z,40.73
2018-11-28T06:31:32.841Z,45.35
2018-11-28T06:34:01.034Z,47.65
2018-11-28T06:36:29.229Z,45.35
2018-11-28T06:38:57.333Z,41.18
2018-11-28T06:41:25.525Z,43.10
2018-11-28T06:43:53.693Z,50.60
2018-11-28T06:46:21.956Z,49.83
2018-11-28T06:48:50.117Z,44.83
2018-11-28T06:51:18.393Z,55.75
2018-11-28T06:53:47.226Z,44.00
2018-11-28T06:56:14.777Z,44.53
2018-11-28T06:58:42.983Z,40.33
2018-11-28T07:01:11.111Z,43.80
2018-11-28T07:03:39.373Z,41.90
2018-11-28T07:06:08.482Z,39.53
2018-11-28T07:08:36.639Z,44.05
2018-11-28T07:11:04.872Z,45.90
2018-11-28T07:13:33.007Z,44.05
2018-11-28T07:16:01.333Z,42.20
2018-11-28T07:18:40.946Z,40.92
2018-11-28T07:21:09.151Z,44.38
2018-11-28T07:23:37.419Z,45.08
2018-11-28T07:26:05.804Z,47.65
2018-11-28T07:28:33.971Z,47.13
2018-11-28T07:31:02.121Z,50.20
2018-11-28T07:33:30.324Z,48.52
2018-11-28T07:35:58.513Z,42.27
2018-11-28T07:38:26.663Z,54.45
2018-11-28T07:40:54.953Z,42.80
2018-11-28T07:43:23.153Z,48.28
2018-11-28T07:45:52.240Z,50.73
2018-11-28T07:48:20.464Z,42.10
2018-11-28T07:50:48.597Z,50.67
2018-11-28T07:53:16.725Z,51.63
2018-11-28T07:55:45.075Z,41.58
2018-11-28T07:58:13.259Z,40.30
2018-11-28T08:00:41.388Z,46.85
2018-11-28T08:03:09.982Z,43.92
2018-11-28T08:05:38.875Z,44.85
2018-11-28T08:08:08.949Z,37.45
2018-11-28T08:10:37.399Z,39.83
2018-11-28T08:13:06.130Z,42.80
2018-11-28T08:15:34.254Z,43.23
2018-11-28T08:18:02.572Z,41.80
2018-11-28T08:20:30.773Z,42.80
2018-11-28T08:22:58.985Z,40.33
2018-11-28T08:25:28.013Z,44.45
2018-11-28T08:27:55.453Z,38.38
2018-11-28T08:30:24.721Z,39.95
2018-11-28T08:32:53.439Z,45.67
2018-11-28T08:35:21.593Z,48.13
2018-11-28T08:37:50.313Z,38.50
2018-11-28T08:40:23.459Z,28.87
2018-11-28T08:42:51.865Z,34.90
2018-11-28T08:45:21.017Z,27.77
2018-11-28T08:47:50.151Z,32.45
2018-11-28T08:50:23.623Z,26.55
2018-11-28T08:52:51.823Z,36.17
2018-11-28T08:55:19.952Z,34.08
2018-11-28T08:57:48.151Z,29.87
2018-11-28T09:00:17.366Z,28.98
2018-11-28T09:02:46.478Z,24.77
2018-11-28T09:05:14.999Z,31.80
2018-11-28T09:07:43.089Z,21.97
2018-11-28T09:10:13.123Z,22.80
2018-11-28T09:12:43.197Z,33.30
2018-11-28T09:15:13.772Z,23.60
2018-11-28T09:17:41.870Z,25.12
2018-11-28T09:20:12.192Z,22.82
2018-11-28T09:22:40.365Z,25.30
2018-11-28T09:25:10.971Z,28.95
2018-11-28T09:27:39.184Z,26.40
2018-11-28T09:30:12.811Z,28.07
2018-11-28T09:32:41.006Z,24.32
2018-11-28T09:35:10.084Z,25.32
2018-11-28T09:37:38.296Z,23.92
2018-11-28T09:40:11.716Z,25.72
2018-11-28T09:42:39.897Z,17.00
2018-11-28T09:45:09.949Z,23.20
2018-11-28T09:47:38.204Z,21.23
2018-11-28T09:50:12.208Z,22.70
2018-11-28T09:52:40.490Z,19.85
2018-11-28T09:55:11.218Z,21.70
2018-11-28T09:57:39.387Z,24.30
2018-11-28T10:00:11.784Z,16.62
2018-11-28T10:02:40.025Z,20.02
2018-11-28T10:05:12.077Z,20.27
2018-11-28T10:07:40.219Z,23.05
2018-11-28T10:10:10.249Z,17.07
2018-11-28T10:12:38.438Z,23.60
2018-11-28T10:15:17.658Z,17.73
2018-11-28T10:17:46.066Z,19.77
2018-11-28T10:20:14.908Z,19.90
2018-11-28T10:22:43.334Z,28.17
2018-11-28T10:25:14.868Z,18.57
2018-11-28T10:27:44.106Z,19.65
2018-11-28T10:30:17.927Z,18.77
2018-11-28T10:32:46.147Z,17.40
2018-11-28T10:35:14.313Z,18.40
2018-11-28T10:37:42.564Z,18.73
2018-11-28T10:40:13.254Z,15.95
2018-11-28T10:42:41.404Z,17.92
2018-11-28T10:45:11.188Z,12.15
2018-11-28T10:47:39.503Z,17.85
2018-11-28T10:50:10.753Z,13.80
2018-11-28T10:52:39.462Z,15.10
2018-11-28T10:55:13.211Z,13.93
2018-11-28T10:57:41.389Z,14.73
2018-11-28T11:00:15.333Z,18.85
2018-11-28T11:02:49.120Z,12.30
2018-11-28T11:05:23.616Z,13.22
2018-11-28T11:07:57.024Z,12.82
2018-11-28T11:10:30.653Z,17.62
2018-11-28T11:13:04.238Z,17.12
2018-11-28T11:15:32.380Z,13.43
2018-11-28T11:18:02.251Z,12.82
2018-11-28T11:20:28.787Z,14.38
2018-11-28T11:22:57.350Z,17.90
2018-11-28T11:25:25.479Z,12.50
2018-11-28T11:27:53.719Z,13.32
2018-11-28T11:30:21.867Z,12.03
2018-11-28T11:32:50.116Z,10.78
2018-11-28T11:35:18.227Z,13.55
2018-11-28T11:37:46.531Z,11.78
2018-11-28T11:40:15.041Z,12.53
2018-11-28T11:42:43.181Z,14.80
2018-11-28T11:45:14.582Z,11.75
2018-11-28T11:47:42.972Z,18.67
2018-11-28T11:50:14.181Z,15.60
2018-11-28T11:52:42.354Z,12.85
2018-11-28T11:55:14.883Z,16.27
2018-11-28T11:57:43.082Z,12.15
2018-11-28T12:00:16.845Z,12.28
2018-11-28T12:03:05.965Z,14.45
2018-11-28T12:05:34.071Z,13.95
2018-11-28T12:08:02.252Z,11.45
2018-11-28T12:10:30.338Z,11.28
2018-11-28T12:12:58.656Z,12.75
2018-11-28T12:15:26.880Z,10.82
2018-11-28T12:17:55.139Z,12.33
2018-11-28T12:20:26.185Z,14.18
2018-11-28T12:22:54.307Z,23.87
2018-11-28T12:25:22.561Z,10.13
2018-11-28T12:27:51.370Z,14.07
2018-11-28T12:30:19.644Z,10.90
2018-11-28T12:32:47.922Z,12.75
2018-11-28T12:35:17.405Z,13.72
2018-11-28T12:37:45.616Z,16.17
2018-11-28T12:40:14.804Z,9.08
2018-11-28T12:42:46.341Z,11.78
2018-11-28T12:45:15.436Z,12.18
2018-11-28T12:47:44.730Z,13.90
2018-11-28T12:50:15.295Z,15.40
2018-11-28T12:52:43.450Z,10.40
2018-11-28T12:55:11.607Z,13.95
2018-11-28T12:57:39.825Z,13.45
2018-11-28T13:00:11.191Z,11.57
2018-11-28T13:02:39.371Z,13.58
2018-11-28T13:05:09.926Z,11.28
2018-11-28T13:07:38.022Z,13.15
2018-11-28T13:10:11.718Z,12.23
2018-11-28T13:12:40.280Z,17.57
2018-11-28T13:15:10.605Z,14.68
2018-11-28T13:17:38.923Z,17.42
2018-11-28T13:20:08.656Z,17.35
2018-11-28T13:22:36.932Z,12.73
2018-11-28T13:25:06.041Z,22.62
2018-11-28T13:27:34.177Z,11.88
2018-11-28T13:30:02.746Z,12.07
2018-11-28T13:32:30.946Z,16.73
2018-11-28T13:34:59.125Z,11.73
2018-11-28T13:37:27.271Z,11.88
2018-11-28T13:39:55.474Z,13.40
2018-11-28T13:42:23.651Z,14.83
2018-11-28T13:44:51.939Z,10.35
2018-11-28T13:47:20.232Z,12.47
2018-11-28T13:49:48.377Z,12.90
2018-11-28T13:52:16.526Z,21.82
2018-11-28T13:55:38.580Z,15.55
2018-11-28T13:57:12.997Z,14.65
2018-11-28T13:59:42.425Z,13.68
2018-11-28T14:02:10.414Z,11.57
2018-11-28T14:04:38.577Z,10.88
2018-11-28T14:07:07.425Z,11.95
2018-11-28T14:09:35.587Z,12.23
2018-11-28T14:12:03.760Z,13.68
2018-11-28T14:14:31.880Z,16.30
2018-11-28T14:17:00.056Z,12.88
2018-11-28T14:19:28.256Z,11.75
2018-11-28T14:21:56.495Z,11.65
2018-11-28T14:24:24.665Z,17.60
2018-11-28T14:26:52.879Z,14.78
2018-11-28T14:29:21.006Z,13.80
2018-11-28T14:31:49.143Z,13.90
2018-11-28T14:34:17.298Z,14.93
2018-11-28T14:36:45.523Z,14.55
2018-11-28T14:39:13.689Z,12.13
2018-11-28T14:41:41.920Z,23.10
2018-11-28T14:44:10.147Z,20.37
2018-11-28T14:46:38.370Z,14.73
2018-11-28T14:49:06.595Z,12.80
2018-11-28T14:51:34.780Z,21.23
2018-11-28T14:54:02.923Z,12.25
2018-11-28T14:56:31.086Z,12.63
2018-11-28T14:58:59.252Z,10.55
2018-11-28T15:01:27.441Z,15.55
2018-11-28T15:03:55.661Z,15.23
2018-11-28T15:06:34.514Z,10.93
2018-11-28T15:09:07.957Z,12.23
2018-11-28T15:11:36.193Z,9.93
2018-11-28T15:14:04.354Z,15.53
2018-11-28T15:16:32.568Z,14.03
2018-11-28T15:19:00.672Z,12.47
2018-11-28T15:21:28.912Z,62.58
2018-11-28T15:23:57.075Z,22.02
2018-11-28T15:26:25.195Z,17.35
2018-11-28T15:28:53.367Z,15.60
2018-11-28T15:31:21.542Z,17.07
2018-11-28T15:33:49.802Z,16.73
2018-11-28T15:36:17.982Z,12.13
2018-11-28T15:38:46.135Z,14.35
2018-11-28T15:41:14.337Z,13.72
2018-11-28T15:43:42.534Z,13.53
2018-11-28T15:46:14.879Z,11.55
2018-11-28T15:48:39.015Z,12.20
2018-11-28T15:51:07.271Z,13.35
2018-11-28T15:53:35.464Z,12.00
2018-11-28T15:56:03.640Z,15.38
2018-11-28T15:58:31.792Z,18.45
2018-11-28T16:00:59.957Z,20.70
2018-11-28T16:03:28.104Z,19.15
2018-11-28T16:05:56.334Z,17.90
2018-11-28T16:08:24.484Z,14.60
2018-11-28T16:10:52.818Z,15.08
2018-11-28T16:13:20.994Z,12.55
2018-11-28T16:15:56.359Z,12.13
2018-11-28T16:18:24.503Z,11.93
2018-11-28T16:20:52.719Z,14.50
2018-11-28T16:23:20.870Z,11.83
2018-11-28T16:25:48.977Z,11.25
2018-11-28T16:28:17.260Z,12.63
2018-11-28T16:30:45.460Z,14.90
2018-11-28T16:33:13.634Z,15.45
2018-11-28T16:35:41.778Z,10.43
2018-11-28T16:38:09.954Z,17.00
2018-11-28T16:40:38.222Z,11.20
2018-11-28T16:43:06.614Z,20.05
2018-11-28T16:45:35.088Z,13.98
2018-11-28T16:48:03.682Z,15.85
2018-11-28T16:50:31.946Z,17.45
2018-11-28T16:53:00.126Z,16.40
2018-11-28T16:55:28.341Z,13.10
2018-11-28T16:57:56.513Z,15.03
2018-11-28T17:00:26.995Z,12.93
2018-11-28T17:02:55.813Z,14.60
2018-11-28T17:05:24.119Z,13.05
2018-11-28T17:07:52.879Z,15.65
2018-11-28T17:10:22.397Z,16.25
2018-11-28T17:12:51.051Z,19.25
2018-11-28T17:15:19.788Z,16.65
2018-11-28T17:17:47.950Z,17.67
2018-11-28T17:20:21.110Z,15.48
2018-11-28T17:22:50.206Z,13.53
2018-11-28T17:25:24.602Z,17.65
2018-11-28T17:27:52.892Z,20.90
2018-11-28T17:30:22.483Z,15.48
2018-11-28T17:32:50.684Z,16.48
2018-11-28T17:35:18.904Z,19.40
2018-11-28T17:37:47.215Z,18.17
2018-11-28T17:40:17.226Z,22.75
2018-11-28T17:42:47.547Z,20.00
2018-11-28T17:45:16.751Z,14.35
2018-11-28T17:47:44.955Z,22.35
2018-11-28T17:50:15.503Z,18.55
2018-11-28T17:52:45.772Z,18.42
2018-11-28T17:55:15.490Z,16.95
2018-11-28T17:57:43.734Z,13.15
2018-11-28T18:00:13.205Z,18.98
2018-11-28T18:02:41.663Z,17.67
2018-11-28T18:05:10.785Z,13.98
2018-11-28T18:07:39.054Z,16.95
2018-11-28T18:10:22.649Z,16.50
2018-11-28T18:13:06.666Z,20.43
2018-11-28T18:15:34.916Z,17.35
2018-11-28T18:18:03.249Z,17.00
2018-11-28T18:20:31.476Z,16.85
2018-11-28T18:22:59.750Z,19.67
2018-11-28T18:25:29.558Z,18.57
2018-11-28T18:27:58.638Z,17.57
2018-11-28T18:30:26.926Z,14.73
2018-11-28T18:32:55.096Z,14.95
2018-11-28T18:35:23.314Z,15.75
2018-11-28T18:37:52.163Z,17.55
2018-11-28T18:40:20.397Z,18.48
2018-11-28T18:42:48.684Z,14.75
2018-11-28T18:45:22.417Z,19.50
2018-11-28T18:47:50.562Z,21.05
2018-11-28T18:50:18.826Z,19.55
2018-11-28T18:52:47.004Z,17.87
2018-11-28T18:55:16.977Z,16.73
2018-11-28T18:57:44.938Z,18.45
2018-11-28T19:00:21.422Z,19.67
2018-11-28T19:02:49.718Z,19.27
2018-11-28T19:05:18.003Z,20.48
2018-11-28T19:07:47.280Z,23.15
2018-11-28T19:10:16.641Z,16.82
2018-11-28T19:12:44.916Z,24.02
2018-11-28T19:15:15.435Z,21.40
2018-11-28T19:17:44.188Z,24.12
2018-11-28T19:20:19.893Z,25.32
2018-11-28T19:22:48.619Z,21.12
2018-11-28T19:25:17.886Z,24.63
2018-11-28T19:27:46.475Z,22.30
2018-11-28T19:30:17.219Z,26.93
2018-11-28T19:32:45.646Z,25.27
2018-11-28T19:35:13.902Z,28.47
2018-11-28T19:37:42.800Z,27.70
2018-11-28T19:40:13.559Z,27.45
2018-11-28T19:42:48.450Z,27.87
2018-11-28T19:45:16.773Z,24.75
2018-11-28T19:47:45.023Z,26.68
2018-11-28T19:50:17.506Z,28.87
2018-11-28T19:52:45.727Z,36.33
2018-11-28T19:55:14.014Z,30.60
2018-11-28T19:57:42.295Z,30.15
2018-11-28T20:00:16.019Z,38.50
2018-11-28T20:02:44.976Z,26.97
2018-11-28T20:05:13.283Z,30.82
2018-11-28T20:07:44.436Z,26.27
2018-11-28T20:12:39.701Z,43.55
2018-11-28T20:15:12.872Z,32.38
2018-11-28T20:17:42.218Z,33.95
2018-11-28T20:20:12.340Z,38.60
2018-11-28T20:22:42.271Z,29.18
2018-11-28T20:27:37.506Z,36.15
2018-11-28T20:30:13.196Z,36.30
2018-11-28T20:32:41.514Z,41.15
2018-11-28T20:35:11.726Z,38.02
2018-11-28T20:37:40.654Z,42.20
2018-11-28T20:40:14.638Z,39.95
2018-11-28T20:42:45.416Z,38.00
2018-11-28T20:45:13.902Z,42.80
2018-11-28T20:47:43.103Z,31.90
2018-11-28T20:52:42.481Z,44.15
2018-11-28T20:55:11.285Z,34.98
2018-11-28T20:57:39.567Z,38.38
2018-11-28T21:00:12.408Z,39.08
2018-11-28T21:02:41.220Z,40.10
2018-11-28T21:05:10.137Z,41.68
2018-11-28T21:07:38.377Z,42.67
2018-11-28T21:10:14.789Z,39.23
2018-11-28T21:12:43.042Z,41.80
2018-11-28T21:15:12.471Z,45.83
2018-11-28T21:17:40.773Z,45.38
2018-11-28T21:20:13.668Z,50.03
2018-11-28T21:22:42.223Z,46.30
2018-11-28T21:25:11.861Z,43.13
2018-11-28T21:27:40.186Z,47.30
2018-11-28T21:30:16.689Z,42.90
2018-11-28T21:32:45.162Z,53.35
2018-11-28T21:35:15.656Z,39.88
2018-11-28T21:37:43.938Z,51.48
2018-11-28T21:40:12.582Z,43.78
2018-11-28T21:42:40.928Z,44.75
2018-11-28T21:45:14.602Z,49.50
2018-11-28T21:47:43.426Z,47.85
2018-11-28T21:50:13.699Z,45.43
2018-11-28T21:52:42.132Z,46.02
2018-11-28T21:55:16.081Z,43.23
2018-11-28T21:57:44.463Z,46.13
2018-11-28T22:00:16.907Z,43.23
2018-11-28T22:02:45.133Z,44.23
2018-11-28T22:05:14.175Z,44.77
2018-11-28T22:07:42.365Z,47.78
2018-11-28T22:10:15.731Z,45.50
2018-11-28T22:12:43.949Z,37.75
2018-11-28T22:15:13.119Z,43.13
2018-11-28T22:17:43.612Z,46.40
2018-11-28T22:20:12.579Z,40.25
2018-11-28T22:22:40.769Z,46.42
2018-11-28T22:25:18.745Z,44.27
2018-11-28T22:27:47.073Z,46.28
2018-11-28T22:30:16.392Z,62.58
2018-11-28T22:32:44.621Z,47.53
2018-11-28T22:35:12.873Z,46.92
2018-11-28T22:37:41.047Z,44.10
2018-11-28T22:40:15.607Z,46.05
2018-11-28T22:42:43.743Z,53.00
2018-11-28T22:45:15.267Z,51.08
2018-11-28T22:47:43.453Z,50.03
2018-11-28T22:50:12.649Z,50.65
2018-11-28T22:52:40.879Z,53.00
2018-11-28T22:55:12.057Z,48.73
2018-11-28T22:57:40.209Z,50.70
2018-11-28T23:00:11.307Z,56.65
2018-11-28T23:02:58.147Z,52.30
2018-11-28T23:05:28.227Z,53.60
2018-11-28T23:07:57.388Z,59.15
2018-11-28T23:10:25.712Z,49.10
2018-11-28T23:12:53.860Z,53.28
2018-11-28T23:15:22.034Z,47.55
2018-11-28T23:17:54.872Z,44.18
2018-11-28T23:20:18.413Z,48.83
2018-11-28T23:22:46.557Z,54.13
2018-11-28T23:25:14.770Z,54.20
2018-11-28T23:27:42.990Z,54.08
2018-11-28T23:30:12.675Z,52.98
2018-11-28T23:32:40.923Z,54.03
2018-11-28T23:35:10.158Z,63.23
2018-11-28T23:37:38.732Z,53.95
2018-11-28T23:40:09.795Z,59.10
2018-11-28T23:42:38.051Z,57.15
2018-11-28T23:45:07.891Z,63.08
2018-11-28T23:47:36.047Z,61.75
2018-11-28T23:50:04.746Z,55.50
2018-11-28T23:52:33.030Z,59.45
2018-11-28T23:55:01.190Z,58.65
2018-11-28T23:57:29.359Z,57.20
2018-11-28T23:59:57.494Z,64.58
